sensor_id;sensor_type;location;lat;lon;timestamp;P1;durP1;ratioP1;P2;durP2;ratioP2
39066;SDS011;24821;51.988;6.020;2023-03-21T00:00:02;10.30;;;8.82;;
39066;SDS011;24821;51.988;6.020;2023-03-21T00:02:28;13.40;;;11.02;;
39066;SDS011;24821;51.988;6.020;2023-03-21T00:04:54;14.27;;;11.48;;
39066;SDS011;24821;51.988;6.020;2023-03-21T00:07:19;10.60;;;9.52;;
39066;SDS011;24821;51.988;6.020;2023-03-21T00:09:45;18.83;;;11.77;;
39066;SDS011;24821;51.988;6.020;2023-03-21T00:12:10;18.25;;;10.80;;
39066;SDS011;24821;51.988;6.020;2023-03-21T00:14:36;20.42;;;12.20;;
39066;SDS011;24821;51.988;6.020;2023-03-21T00:17:03;17.35;;;11.13;;
39066;SDS011;24821;51.988;6.020;2023-03-21T00:19:28;12.10;;;10.25;;
39066;SDS011;24821;51.988;6.020;2023-03-21T00:21:54;16.23;;;11.73;;
39066;SDS011;24821;51.988;6.020;2023-03-21T00:24:20;20.35;;;11.93;;
39066;SDS011;24821;51.988;6.020;2023-03-21T00:26:47;20.27;;;11.57;;
39066;SDS011;24821;51.988;6.020;2023-03-21T00:29:13;18.80;;;12.90;;
39066;SDS011;24821;51.988;6.020;2023-03-21T00:31:38;14.30;;;12.32;;
39066;SDS011;24821;51.988;6.020;2023-03-21T00:34:04;18.70;;;12.30;;
39066;SDS011;24821;51.988;6.020;2023-03-21T00:36:30;12.40;;;10.90;;
39066;SDS011;24821;51.988;6.020;2023-03-21T00:38:55;15.85;;;11.98;;
39066;SDS011;24821;51.988;6.020;2023-03-21T00:41:21;23.52;;;13.30;;
39066;SDS011;24821;51.988;6.020;2023-03-21T00:43:47;17.58;;;13.52;;
39066;SDS011;24821;51.988;6.020;2023-03-21T00:46:12;13.77;;;11.93;;
39066;SDS011;24821;51.988;6.020;2023-03-21T00:48:38;23.15;;;12.48;;
39066;SDS011;24821;51.988;6.020;2023-03-21T00:51:09;15.35;;;12.63;;
39066;SDS011;24821;51.988;6.020;2023-03-21T00:53:37;20.75;;;13.38;;
39066;SDS011;24821;51.988;6.020;2023-03-21T00:56:02;13.02;;;11.32;;
39066;SDS011;24821;51.988;6.020;2023-03-21T00:58:28;11.93;;;10.05;;
39066;SDS011;24821;51.988;6.020;2023-03-21T01:00:54;18.10;;;10.98;;
39066;SDS011;24821;51.988;6.020;2023-03-21T01:03:19;14.20;;;11.50;;
39066;SDS011;24821;51.988;6.020;2023-03-21T01:05:46;14.38;;;11.57;;
39066;SDS011;24821;51.988;6.020;2023-03-21T01:08:35;13.70;;;10.05;;
39066;SDS011;24821;51.988;6.020;2023-03-21T01:11:03;14.35;;;11.25;;
39066;SDS011;24821;51.988;6.020;2023-03-21T01:13:31;12.07;;;10.82;;
39066;SDS011;24821;51.988;6.020;2023-03-21T01:15:57;15.48;;;11.77;;
39066;SDS011;24821;51.988;6.020;2023-03-21T01:18:24;13.23;;;10.63;;
39066;SDS011;24821;51.988;6.020;2023-03-21T01:20:53;14.57;;;10.30;;
39066;SDS011;24821;51.988;6.020;2023-03-21T01:23:21;11.73;;;10.57;;
39066;SDS011;24821;51.988;6.020;2023-03-21T01:25:47;14.15;;;11.25;;
39066;SDS011;24821;51.988;6.020;2023-03-21T01:28:14;15.13;;;9.93;;
39066;SDS011;24821;51.988;6.020;2023-03-21T01:30:47;16.38;;;8.85;;
39066;SDS011;24821;51.988;6.020;2023-03-21T01:33:14;14.55;;;9.63;;
39066;SDS011;24821;51.988;6.020;2023-03-21T01:35:41;15.20;;;9.68;;
39066;SDS011;24821;51.988;6.020;2023-03-21T01:38:06;11.45;;;8.27;;
39066;SDS011;24821;51.988;6.020;2023-03-21T01:40:34;10.02;;;7.93;;
39066;SDS011;24821;51.988;6.020;2023-03-21T01:43:00;15.02;;;10.38;;
39066;SDS011;24821;51.988;6.020;2023-03-21T01:48:29;14.00;;;9.45;;
39066;SDS011;24821;51.988;6.020;2023-03-21T01:50:56;15.63;;;10.88;;
39066;SDS011;24821;51.988;6.020;2023-03-21T01:53:24;11.45;;;10.13;;
39066;SDS011;24821;51.988;6.020;2023-03-21T01:55:55;15.13;;;10.98;;
39066;SDS011;24821;51.988;6.020;2023-03-21T01:58:21;10.93;;;9.82;;
39066;SDS011;24821;51.988;6.020;2023-03-21T02:00:48;17.77;;;10.48;;
39066;SDS011;24821;51.988;6.020;2023-03-21T02:03:15;16.58;;;10.43;;
39066;SDS011;24821;51.988;6.020;2023-03-21T02:05:50;16.75;;;11.10;;
39066;SDS011;24821;51.988;6.020;2023-03-21T02:08:20;15.35;;;11.73;;
39066;SDS011;24821;51.988;6.020;2023-03-21T02:10:47;12.95;;;11.63;;
39066;SDS011;24821;51.988;6.020;2023-03-21T02:13:14;11.15;;;9.70;;
39066;SDS011;24821;51.988;6.020;2023-03-21T02:15:41;14.48;;;11.82;;
39066;SDS011;24821;51.988;6.020;2023-03-21T02:27:01;14.52;;;12.15;;
39066;SDS011;24821;51.988;6.020;2023-03-21T02:29:57;13.98;;;9.88;;
39066;SDS011;24821;51.988;6.020;2023-03-21T02:32:51;15.68;;;12.57;;
39066;SDS011;24821;51.988;6.020;2023-03-21T02:46:33;15.57;;;11.77;;
39066;SDS011;24821;51.988;6.020;2023-03-21T02:49:07;13.38;;;11.57;;
39066;SDS011;24821;51.988;6.020;2023-03-21T02:51:40;15.18;;;11.85;;
39066;SDS011;24821;51.988;6.020;2023-03-21T02:54:11;20.52;;;14.23;;
39066;SDS011;24821;51.988;6.020;2023-03-21T02:56:40;15.45;;;12.65;;
39066;SDS011;24821;51.988;6.020;2023-03-21T02:59:08;15.07;;;12.48;;
39066;SDS011;24821;51.988;6.020;2023-03-21T03:01:34;14.18;;;12.80;;
39066;SDS011;24821;51.988;6.020;2023-03-21T03:04:00;15.73;;;12.10;;
39066;SDS011;24821;51.988;6.020;2023-03-21T03:15:19;13.45;;;12.07;;
39066;SDS011;24821;51.988;6.020;2023-03-21T03:18:26;14.57;;;10.93;;
39066;SDS011;24821;51.988;6.020;2023-03-21T03:21:02;20.25;;;12.07;;
39066;SDS011;24821;51.988;6.020;2023-03-21T03:31:23;15.75;;;10.32;;
39066;SDS011;24821;51.988;6.020;2023-03-21T03:33:59;17.20;;;11.80;;
39066;SDS011;24821;51.988;6.020;2023-03-21T03:36:31;15.43;;;12.35;;
39066;SDS011;24821;51.988;6.020;2023-03-21T03:39:03;16.88;;;11.73;;
39066;SDS011;24821;51.988;6.020;2023-03-21T03:41:33;17.52;;;11.73;;
39066;SDS011;24821;51.988;6.020;2023-03-21T03:44:09;22.88;;;11.20;;
39066;SDS011;24821;51.988;6.020;2023-03-21T03:46:38;13.45;;;10.65;;
39066;SDS011;24821;51.988;6.020;2023-03-21T03:54:27;17.65;;;11.05;;
39066;SDS011;24821;51.988;6.020;2023-03-21T03:56:56;15.32;;;10.00;;
39066;SDS011;24821;51.988;6.020;2023-03-21T03:59:22;14.07;;;10.32;;
39066;SDS011;24821;51.988;6.020;2023-03-21T04:01:49;12.27;;;9.25;;
39066;SDS011;24821;51.988;6.020;2023-03-21T04:04:15;11.77;;;9.23;;
39066;SDS011;24821;51.988;6.020;2023-03-21T04:06:42;21.58;;;9.60;;
39066;SDS011;24821;51.988;6.020;2023-03-21T04:09:09;18.15;;;9.60;;
39066;SDS011;24821;51.988;6.020;2023-03-21T04:11:35;18.00;;;8.50;;
39066;SDS011;24821;51.988;6.020;2023-03-21T04:14:01;14.40;;;9.05;;
39066;SDS011;24821;51.988;6.020;2023-03-21T04:16:27;16.45;;;8.77;;
39066;SDS011;24821;51.988;6.020;2023-03-21T04:18:55;10.68;;;8.52;;
39066;SDS011;24821;51.988;6.020;2023-03-21T04:21:20;12.10;;;9.23;;
39066;SDS011;24821;51.988;6.020;2023-03-21T04:23:46;13.90;;;8.15;;
39066;SDS011;24821;51.988;6.020;2023-03-21T04:26:11;14.65;;;9.68;;
39066;SDS011;24821;51.988;6.020;2023-03-21T04:28:37;10.38;;;8.10;;
39066;SDS011;24821;51.988;6.020;2023-03-21T04:31:05;10.50;;;7.88;;
39066;SDS011;24821;51.988;6.020;2023-03-21T04:33:31;10.68;;;8.05;;
39066;SDS011;24821;51.988;6.020;2023-03-21T04:36:02;12.65;;;8.10;;
39066;SDS011;24821;51.988;6.020;2023-03-21T04:38:30;8.75;;;6.93;;
39066;SDS011;24821;51.988;6.020;2023-03-21T04:40:57;15.27;;;7.90;;
39066;SDS011;24821;51.988;6.020;2023-03-21T04:43:23;13.00;;;8.55;;
39066;SDS011;24821;51.988;6.020;2023-03-21T04:45:49;8.32;;;7.45;;
39066;SDS011;24821;51.988;6.020;2023-03-21T04:48:16;9.10;;;7.53;;
39066;SDS011;24821;51.988;6.020;2023-03-21T04:50:44;10.15;;;6.95;;
39066;SDS011;24821;51.988;6.020;2023-03-21T04:53:11;13.32;;;8.32;;
39066;SDS011;24821;51.988;6.020;2023-03-21T04:55:36;7.63;;;6.88;;
39066;SDS011;24821;51.988;6.020;2023-03-21T04:58:04;8.80;;;7.45;;
39066;SDS011;24821;51.988;6.020;2023-03-21T05:00:30;10.73;;;8.45;;
39066;SDS011;24821;51.988;6.020;2023-03-21T05:02:56;12.93;;;7.25;;
39066;SDS011;24821;51.988;6.020;2023-03-21T05:05:22;14.27;;;9.23;;
39066;SDS011;24821;51.988;6.020;2023-03-21T05:07:48;9.02;;;8.05;;
39066;SDS011;24821;51.988;6.020;2023-03-21T05:10:14;9.40;;;6.80;;
39066;SDS011;24821;51.988;6.020;2023-03-21T05:12:41;13.15;;;8.45;;
39066;SDS011;24821;51.988;6.020;2023-03-21T05:15:07;12.45;;;7.45;;
39066;SDS011;24821;51.988;6.020;2023-03-21T05:17:33;14.40;;;8.13;;
39066;SDS011;24821;51.988;6.020;2023-03-21T05:19:59;11.23;;;7.57;;
39066;SDS011;24821;51.988;6.020;2023-03-21T05:22:24;11.95;;;7.68;;
39066;SDS011;24821;51.988;6.020;2023-03-21T05:24:52;9.90;;;7.88;;
39066;SDS011;24821;51.988;6.020;2023-03-21T05:27:19;8.02;;;6.65;;
39066;SDS011;24821;51.988;6.020;2023-03-21T05:30:02;14.30;;;8.70;;
39066;SDS011;24821;51.988;6.020;2023-03-21T05:32:35;10.85;;;7.63;;
39066;SDS011;24821;51.988;6.020;2023-03-21T05:35:01;10.98;;;8.40;;
39066;SDS011;24821;51.988;6.020;2023-03-21T05:37:27;14.70;;;7.90;;
39066;SDS011;24821;51.988;6.020;2023-03-21T05:39:53;17.13;;;7.90;;
39066;SDS011;24821;51.988;6.020;2023-03-21T05:42:18;10.13;;;7.47;;
39066;SDS011;24821;51.988;6.020;2023-03-21T05:44:44;10.52;;;6.57;;
39066;SDS011;24821;51.988;6.020;2023-03-21T05:47:11;9.40;;;7.80;;
39066;SDS011;24821;51.988;6.020;2023-03-21T05:49:38;17.52;;;8.25;;
39066;SDS011;24821;51.988;6.020;2023-03-21T05:52:03;11.88;;;8.57;;
39066;SDS011;24821;51.988;6.020;2023-03-21T05:54:29;14.10;;;8.40;;
39066;SDS011;24821;51.988;6.020;2023-03-21T05:56:55;17.10;;;8.60;;
39066;SDS011;24821;51.988;6.020;2023-03-21T05:59:20;21.58;;;9.93;;
39066;SDS011;24821;51.988;6.020;2023-03-21T06:01:46;12.20;;;8.80;;
39066;SDS011;24821;51.988;6.020;2023-03-21T06:04:12;17.52;;;9.30;;
39066;SDS011;24821;51.988;6.020;2023-03-21T06:06:37;15.85;;;9.23;;
39066;SDS011;24821;51.988;6.020;2023-03-21T06:09:03;10.73;;;9.38;;
39066;SDS011;24821;51.988;6.020;2023-03-21T06:11:30;13.57;;;8.57;;
39066;SDS011;24821;51.988;6.020;2023-03-21T06:13:57;17.15;;;9.07;;
39066;SDS011;24821;51.988;6.020;2023-03-21T06:16:22;14.20;;;8.77;;
39066;SDS011;24821;51.988;6.020;2023-03-21T06:18:48;10.73;;;9.07;;
39066;SDS011;24821;51.988;6.020;2023-03-21T06:21:14;14.85;;;8.82;;
39066;SDS011;24821;51.988;6.020;2023-03-21T06:23:40;17.17;;;8.13;;
39066;SDS011;24821;51.988;6.020;2023-03-21T06:26:06;11.77;;;8.95;;
39066;SDS011;24821;51.988;6.020;2023-03-21T06:28:32;12.70;;;7.68;;
39066;SDS011;24821;51.988;6.020;2023-03-21T06:30:58;12.77;;;8.88;;
39066;SDS011;24821;51.988;6.020;2023-03-21T06:33:23;11.77;;;7.70;;
39066;SDS011;24821;51.988;6.020;2023-03-21T06:35:50;7.68;;;6.70;;
39066;SDS011;24821;51.988;6.020;2023-03-21T06:38:20;13.75;;;7.68;;
39066;SDS011;24821;51.988;6.020;2023-03-21T06:40:46;15.82;;;7.85;;
39066;SDS011;24821;51.988;6.020;2023-03-21T06:43:12;12.55;;;7.90;;
39066;SDS011;24821;51.988;6.020;2023-03-21T06:45:40;12.43;;;8.65;;
39066;SDS011;24821;51.988;6.020;2023-03-21T06:48:06;8.75;;;7.70;;
39066;SDS011;24821;51.988;6.020;2023-03-21T06:50:32;11.55;;;7.15;;
39066;SDS011;24821;51.988;6.020;2023-03-21T06:52:57;21.98;;;7.43;;
39066;SDS011;24821;51.988;6.020;2023-03-21T06:55:23;15.63;;;7.38;;
39066;SDS011;24821;51.988;6.020;2023-03-21T06:57:51;12.57;;;7.47;;
39066;SDS011;24821;51.988;6.020;2023-03-21T07:00:17;7.68;;;6.88;;
39066;SDS011;24821;51.988;6.020;2023-03-21T07:02:43;8.90;;;7.45;;
39066;SDS011;24821;51.988;6.020;2023-03-21T07:05:10;21.40;;;7.97;;
39066;SDS011;24821;51.988;6.020;2023-03-21T07:07:36;12.45;;;7.50;;
39066;SDS011;24821;51.988;6.020;2023-03-21T07:10:02;11.48;;;7.68;;
39066;SDS011;24821;51.988;6.020;2023-03-21T07:12:28;8.93;;;7.43;;
39066;SDS011;24821;51.988;6.020;2023-03-21T07:14:54;15.15;;;7.75;;
39066;SDS011;24821;51.988;6.020;2023-03-21T07:17:19;11.20;;;6.55;;
39066;SDS011;24821;51.988;6.020;2023-03-21T07:19:45;10.43;;;6.78;;
39066;SDS011;24821;51.988;6.020;2023-03-21T07:22:10;7.63;;;6.90;;
39066;SDS011;24821;51.988;6.020;2023-03-21T07:24:36;7.82;;;6.93;;
39066;SDS011;24821;51.988;6.020;2023-03-21T07:27:01;9.05;;;6.75;;
39066;SDS011;24821;51.988;6.020;2023-03-21T07:29:27;9.38;;;7.75;;
39066;SDS011;24821;51.988;6.020;2023-03-21T07:31:52;11.35;;;6.18;;
39066;SDS011;24821;51.988;6.020;2023-03-21T07:34:18;10.65;;;7.38;;
39066;SDS011;24821;51.988;6.020;2023-03-21T07:36:43;8.05;;;7.25;;
39066;SDS011;24821;51.988;6.020;2023-03-21T07:39:09;15.48;;;8.18;;
39066;SDS011;24821;51.988;6.020;2023-03-21T07:41:35;8.93;;;6.88;;
39066;SDS011;24821;51.988;6.020;2023-03-21T07:44:00;9.60;;;6.82;;
39066;SDS011;24821;51.988;6.020;2023-03-21T07:46:27;10.93;;;6.97;;
39066;SDS011;24821;51.988;6.020;2023-03-21T07:48:53;8.25;;;6.45;;
39066;SDS011;24821;51.988;6.020;2023-03-21T07:51:18;8.35;;;6.68;;
39066;SDS011;24821;51.988;6.020;2023-03-21T07:53:44;8.88;;;6.22;;
39066;SDS011;24821;51.988;6.020;2023-03-21T07:56:12;7.88;;;7.00;;
39066;SDS011;24821;51.988;6.020;2023-03-21T07:58:38;11.02;;;7.95;;
39066;SDS011;24821;51.988;6.020;2023-03-21T08:01:03;8.63;;;6.07;;
39066;SDS011;24821;51.988;6.020;2023-03-21T08:03:29;9.50;;;6.60;;
39066;SDS011;24821;51.988;6.020;2023-03-21T08:05:58;8.95;;;6.03;;
39066;SDS011;24821;51.988;6.020;2023-03-21T08:08:26;7.30;;;6.18;;
39066;SDS011;24821;51.988;6.020;2023-03-21T08:10:51;7.45;;;6.25;;
39066;SDS011;24821;51.988;6.020;2023-03-21T08:13:17;10.15;;;5.70;;
39066;SDS011;24821;51.988;6.020;2023-03-21T08:15:42;6.28;;;5.47;;
39066;SDS011;24821;51.988;6.020;2023-03-21T08:18:08;10.20;;;5.47;;
39066;SDS011;24821;51.988;6.020;2023-03-21T08:20:35;14.00;;;5.57;;
39066;SDS011;24821;51.988;6.020;2023-03-21T08:23:01;9.32;;;6.18;;
39066;SDS011;24821;51.988;6.020;2023-03-21T08:25:26;6.45;;;5.88;;
39066;SDS011;24821;51.988;6.020;2023-03-21T08:27:52;10.52;;;6.70;;
39066;SDS011;24821;51.988;6.020;2023-03-21T08:30:19;9.50;;;6.25;;
39066;SDS011;24821;51.988;6.020;2023-03-21T08:32:46;11.70;;;6.45;;
39066;SDS011;24821;51.988;6.020;2023-03-21T08:35:13;11.60;;;5.85;;
39066;SDS011;24821;51.988;6.020;2023-03-21T08:37:40;10.85;;;7.25;;
39066;SDS011;24821;51.988;6.020;2023-03-21T08:40:08;10.05;;;5.88;;
39066;SDS011;24821;51.988;6.020;2023-03-21T08:42:37;8.40;;;5.63;;
39066;SDS011;24821;51.988;6.020;2023-03-21T08:45:04;7.25;;;5.65;;
39066;SDS011;24821;51.988;6.020;2023-03-21T08:47:30;10.27;;;5.82;;
39066;SDS011;24821;51.988;6.020;2023-03-21T08:49:56;6.32;;;5.72;;
39066;SDS011;24821;51.988;6.020;2023-03-21T08:52:23;7.55;;;6.13;;
39066;SDS011;24821;51.988;6.020;2023-03-21T08:54:49;11.88;;;6.78;;
39066;SDS011;24821;51.988;6.020;2023-03-21T08:57:15;8.50;;;6.57;;
39066;SDS011;24821;51.988;6.020;2023-03-21T08:59:40;7.18;;;5.95;;
39066;SDS011;24821;51.988;6.020;2023-03-21T09:02:06;9.80;;;6.53;;
39066;SDS011;24821;51.988;6.020;2023-03-21T09:04:32;6.65;;;5.78;;
39066;SDS011;24821;51.988;6.020;2023-03-21T09:06:57;7.40;;;6.03;;
39066;SDS011;24821;51.988;6.020;2023-03-21T09:09:25;6.30;;;5.70;;
39066;SDS011;24821;51.988;6.020;2023-03-21T09:11:53;13.13;;;6.93;;
39066;SDS011;24821;51.988;6.020;2023-03-21T09:14:18;10.68;;;6.53;;
39066;SDS011;24821;51.988;6.020;2023-03-21T09:16:44;13.85;;;7.45;;
39066;SDS011;24821;51.988;6.020;2023-03-21T09:19:10;9.40;;;6.25;;
39066;SDS011;24821;51.988;6.020;2023-03-21T09:21:36;6.75;;;6.25;;
39066;SDS011;24821;51.988;6.020;2023-03-21T09:24:03;10.10;;;7.05;;
39066;SDS011;24821;51.988;6.020;2023-03-21T09:26:31;7.30;;;6.75;;
39066;SDS011;24821;51.988;6.020;2023-03-21T09:28:57;11.02;;;8.60;;
39066;SDS011;24821;51.988;6.020;2023-03-21T09:31:24;11.55;;;10.35;;
39066;SDS011;24821;51.988;6.020;2023-03-21T09:33:52;10.95;;;9.75;;
39066;SDS011;24821;51.988;6.020;2023-03-21T09:36:19;8.43;;;7.70;;
39066;SDS011;24821;51.988;6.020;2023-03-21T09:38:48;7.63;;;6.82;;
39066;SDS011;24821;51.988;6.020;2023-03-21T09:49:58;8.90;;;7.03;;
39066;SDS011;24821;51.988;6.020;2023-03-21T09:52:54;6.45;;;5.35;;
39066;SDS011;24821;51.988;6.020;2023-03-21T09:55:35;7.70;;;5.20;;
39066;SDS011;24821;51.988;6.020;2023-03-21T09:58:04;6.05;;;5.55;;
39066;SDS011;24821;51.988;6.020;2023-03-21T10:00:33;11.30;;;6.88;;
39066;SDS011;24821;51.988;6.020;2023-03-21T10:03:05;7.22;;;5.63;;
39066;SDS011;24821;51.988;6.020;2023-03-21T10:05:45;8.05;;;5.60;;
39066;SDS011;24821;51.988;6.020;2023-03-21T10:08:19;7.60;;;6.80;;
39066;SDS011;24821;51.988;6.020;2023-03-21T10:10:52;12.20;;;7.63;;
39066;SDS011;24821;51.988;6.020;2023-03-21T10:13:43;12.52;;;6.32;;
39066;SDS011;24821;51.988;6.020;2023-03-21T10:16:15;9.45;;;6.20;;
39066;SDS011;24821;51.988;6.020;2023-03-21T10:18:51;9.77;;;6.13;;
39066;SDS011;24821;51.988;6.020;2023-03-21T10:21:22;8.50;;;6.28;;
39066;SDS011;24821;51.988;6.020;2023-03-21T10:23:51;10.68;;;6.05;;
39066;SDS011;24821;51.988;6.020;2023-03-21T10:26:23;11.50;;;8.13;;
39066;SDS011;24821;51.988;6.020;2023-03-21T10:28:51;6.88;;;5.57;;
39066;SDS011;24821;51.988;6.020;2023-03-21T10:31:22;8.23;;;7.03;;
39066;SDS011;24821;51.988;6.020;2023-03-21T10:33:50;6.65;;;6.10;;
39066;SDS011;24821;51.988;6.020;2023-03-21T10:36:19;8.02;;;5.28;;
39066;SDS011;24821;51.988;6.020;2023-03-21T10:38:51;7.25;;;4.78;;
39066;SDS011;24821;51.988;6.020;2023-03-21T10:41:24;6.68;;;4.45;;
39066;SDS011;24821;51.988;6.020;2023-03-21T10:46:53;5.88;;;5.00;;
39066;SDS011;24821;51.988;6.020;2023-03-21T10:49:21;10.85;;;5.68;;
39066;SDS011;24821;51.988;6.020;2023-03-21T10:51:50;8.68;;;6.43;;
39066;SDS011;24821;51.988;6.020;2023-03-21T10:54:25;5.28;;;4.78;;
39066;SDS011;24821;51.988;6.020;2023-03-21T10:56:57;5.03;;;4.53;;
39066;SDS011;24821;51.988;6.020;2023-03-21T10:59:33;10.43;;;5.07;;
39066;SDS011;24821;51.988;6.020;2023-03-21T11:02:06;8.65;;;5.72;;
39066;SDS011;24821;51.988;6.020;2023-03-21T11:04:41;11.05;;;6.05;;
39066;SDS011;24821;51.988;6.020;2023-03-21T11:07:08;7.38;;;4.93;;
39066;SDS011;24821;51.988;6.020;2023-03-21T11:12:40;8.80;;;5.53;;
39066;SDS011;24821;51.988;6.020;2023-03-21T11:15:24;8.00;;;4.30;;
39066;SDS011;24821;51.988;6.020;2023-03-21T11:17:51;6.78;;;3.88;;
39066;SDS011;24821;51.988;6.020;2023-03-21T11:20:17;6.07;;;4.57;;
39066;SDS011;24821;51.988;6.020;2023-03-21T11:22:44;4.82;;;3.95;;
39066;SDS011;24821;51.988;6.020;2023-03-21T11:25:26;6.45;;;4.75;;
39066;SDS011;24821;51.988;6.020;2023-03-21T11:27:59;6.10;;;4.25;;
39066;SDS011;24821;51.988;6.020;2023-03-21T11:30:31;7.53;;;4.53;;
39066;SDS011;24821;51.988;6.020;2023-03-21T11:32:57;10.38;;;4.20;;
39066;SDS011;24821;51.988;6.020;2023-03-21T11:35:27;4.25;;;3.78;;
39066;SDS011;24821;51.988;6.020;2023-03-21T11:37:58;4.78;;;4.38;;
39066;SDS011;24821;51.988;6.020;2023-03-21T11:40:26;8.18;;;5.32;;
39066;SDS011;24821;51.988;6.020;2023-03-21T11:42:56;6.10;;;3.55;;
39066;SDS011;24821;51.988;6.020;2023-03-21T11:45:26;8.00;;;5.80;;
39066;SDS011;24821;51.988;6.020;2023-03-21T11:47:54;9.63;;;6.65;;
39066;SDS011;24821;51.988;6.020;2023-03-21T11:50:29;5.93;;;5.03;;
39066;SDS011;24821;51.988;6.020;2023-03-21T11:55:31;6.55;;;5.53;;
39066;SDS011;24821;51.988;6.020;2023-03-21T12:00:51;4.25;;;3.88;;
39066;SDS011;24821;51.988;6.020;2023-03-21T12:06:40;9.93;;;4.35;;
39066;SDS011;24821;51.988;6.020;2023-03-21T12:11:53;10.40;;;4.38;;
39066;SDS011;24821;51.988;6.020;2023-03-21T12:14:27;5.28;;;4.00;;
39066;SDS011;24821;51.988;6.020;2023-03-21T12:25:04;4.40;;;3.50;;
39066;SDS011;24821;51.988;6.020;2023-03-21T12:27:49;3.88;;;3.58;;
39066;SDS011;24821;51.988;6.020;2023-03-21T12:33:40;6.07;;;4.05;;
39066;SDS011;24821;51.988;6.020;2023-03-21T12:39:11;14.48;;;4.25;;
39066;SDS011;24821;51.988;6.020;2023-03-21T12:44:25;5.95;;;4.18;;
39066;SDS011;24821;51.988;6.020;2023-03-21T12:47:07;6.75;;;4.93;;
39066;SDS011;24821;51.988;6.020;2023-03-21T12:49:38;17.20;;;4.32;;
39066;SDS011;24821;51.988;6.020;2023-03-21T12:54:39;3.58;;;3.28;;
39066;SDS011;24821;51.988;6.020;2023-03-21T12:59:55;7.13;;;4.30;;
39066;SDS011;24821;51.988;6.020;2023-03-21T13:02:49;8.18;;;4.68;;
39066;SDS011;24821;51.988;6.020;2023-03-21T13:08:18;7.65;;;4.70;;
39066;SDS011;24821;51.988;6.020;2023-03-21T13:10:45;9.60;;;4.65;;
39066;SDS011;24821;51.988;6.020;2023-03-21T13:13:25;3.80;;;3.60;;
39066;SDS011;24821;51.988;6.020;2023-03-21T13:18:32;4.07;;;3.72;;
39066;SDS011;24821;51.988;6.020;2023-03-21T13:21:06;3.78;;;3.53;;
39066;SDS011;24821;51.988;6.020;2023-03-21T13:24:03;5.10;;;4.57;;
39066;SDS011;24821;51.988;6.020;2023-03-21T13:26:44;12.23;;;4.82;;
39066;SDS011;24821;51.988;6.020;2023-03-21T13:29:22;7.07;;;3.92;;
39066;SDS011;24821;51.988;6.020;2023-03-21T13:31:49;6.20;;;4.05;;
39066;SDS011;24821;51.988;6.020;2023-03-21T13:34:16;10.63;;;3.92;;
39066;SDS011;24821;51.988;6.020;2023-03-21T13:36:45;10.15;;;4.68;;
39066;SDS011;24821;51.988;6.020;2023-03-21T13:39:25;4.07;;;3.83;;
39066;SDS011;24821;51.988;6.020;2023-03-21T13:41:53;6.35;;;4.35;;
39066;SDS011;24821;51.988;6.020;2023-03-21T13:49:46;9.52;;;4.45;;
39066;SDS011;24821;51.988;6.020;2023-03-21T13:55:29;3.78;;;3.47;;
39066;SDS011;24821;51.988;6.020;2023-03-21T13:57:56;3.88;;;3.58;;
39066;SDS011;24821;51.988;6.020;2023-03-21T14:00:26;4.78;;;4.38;;
39066;SDS011;24821;51.988;6.020;2023-03-21T14:05:24;7.13;;;6.43;;
39066;SDS011;24821;51.988;6.020;2023-03-21T14:07:52;12.23;;;9.60;;
39066;SDS011;24821;51.988;6.020;2023-03-21T14:12:59;21.85;;;15.77;;
39066;SDS011;24821;51.988;6.020;2023-03-21T14:15:28;23.92;;;16.52;;
39066;SDS011;24821;51.988;6.020;2023-03-21T14:18:02;21.15;;;18.05;;
39066;SDS011;24821;51.988;6.020;2023-03-21T14:20:32;16.13;;;14.57;;
39066;SDS011;24821;51.988;6.020;2023-03-21T14:23:06;13.75;;;12.55;;
39066;SDS011;24821;51.988;6.020;2023-03-21T14:25:37;14.13;;;11.98;;
39066;SDS011;24821;51.988;6.020;2023-03-21T14:28:05;19.33;;;13.75;;
39066;SDS011;24821;51.988;6.020;2023-03-21T14:30:38;16.58;;;14.55;;
39066;SDS011;24821;51.988;6.020;2023-03-21T14:33:07;14.68;;;13.77;;
39066;SDS011;24821;51.988;6.020;2023-03-21T14:36:01;14.55;;;13.48;;
39066;SDS011;24821;51.988;6.020;2023-03-21T14:38:34;13.68;;;12.77;;
39066;SDS011;24821;51.988;6.020;2023-03-21T14:41:01;12.98;;;12.27;;
39066;SDS011;24821;51.988;6.020;2023-03-21T14:43:27;13.15;;;12.25;;
39066;SDS011;24821;51.988;6.020;2023-03-21T14:45:55;15.35;;;14.25;;
39066;SDS011;24821;51.988;6.020;2023-03-21T14:48:28;14.10;;;13.27;;
39066;SDS011;24821;51.988;6.020;2023-03-21T14:50:56;13.13;;;12.27;;
39066;SDS011;24821;51.988;6.020;2023-03-21T14:53:27;15.02;;;14.00;;
39066;SDS011;24821;51.988;6.020;2023-03-21T14:58:42;16.27;;;14.82;;
39066;SDS011;24821;51.988;6.020;2023-03-21T15:01:15;16.55;;;15.55;;
39066;SDS011;24821;51.988;6.020;2023-03-21T15:03:49;14.55;;;13.65;;
39066;SDS011;24821;51.988;6.020;2023-03-21T15:06:16;16.55;;;14.85;;
39066;SDS011;24821;51.988;6.020;2023-03-21T15:08:52;16.10;;;15.00;;
39066;SDS011;24821;51.988;6.020;2023-03-21T15:11:37;15.45;;;14.35;;
39066;SDS011;24821;51.988;6.020;2023-03-21T15:14:07;15.30;;;14.60;;
39066;SDS011;24821;51.988;6.020;2023-03-21T15:16:36;16.30;;;15.30;;
39066;SDS011;24821;51.988;6.020;2023-03-21T15:19:03;15.27;;;14.38;;
39066;SDS011;24821;51.988;6.020;2023-03-21T15:21:38;16.67;;;15.60;;
39066;SDS011;24821;51.988;6.020;2023-03-21T15:24:12;16.45;;;15.25;;
39066;SDS011;24821;51.988;6.020;2023-03-21T15:26:43;16.88;;;15.88;;
39066;SDS011;24821;51.988;6.020;2023-03-21T15:29:10;16.42;;;15.43;;
39066;SDS011;24821;51.988;6.020;2023-03-21T15:31:38;16.67;;;15.77;;
39066;SDS011;24821;51.988;6.020;2023-03-21T15:34:04;16.58;;;15.48;;
39066;SDS011;24821;51.988;6.020;2023-03-21T15:36:32;17.02;;;16.08;;
39066;SDS011;24821;51.988;6.020;2023-03-21T15:39:03;16.58;;;15.50;;
39066;SDS011;24821;51.988;6.020;2023-03-21T15:41:32;15.85;;;14.50;;
39066;SDS011;24821;51.988;6.020;2023-03-21T15:51:42;15.10;;;14.05;;
39066;SDS011;24821;51.988;6.020;2023-03-21T15:54:28;14.10;;;13.40;;
39066;SDS011;24821;51.988;6.020;2023-03-21T16:00:39;13.07;;;12.25;;
39066;SDS011;24821;51.988;6.020;2023-03-21T16:02:45;11.50;;;10.88;;
39066;SDS011;24821;51.988;6.020;2023-03-21T16:07:58;11.38;;;10.57;;
39066;SDS011;24821;51.988;6.020;2023-03-21T16:10:42;10.98;;;10.38;;
39066;SDS011;24821;51.988;6.020;2023-03-21T16:13:11;11.15;;;10.55;;
39066;SDS011;24821;51.988;6.020;2023-03-21T16:15:40;12.05;;;11.45;;
39066;SDS011;24821;51.988;6.020;2023-03-21T16:18:06;12.60;;;12.00;;
39066;SDS011;24821;51.988;6.020;2023-03-21T16:20:37;13.65;;;12.93;;
39066;SDS011;24821;51.988;6.020;2023-03-21T16:25:34;10.80;;;10.27;;
39066;SDS011;24821;51.988;6.020;2023-03-21T16:28:00;11.93;;;11.25;;
39066;SDS011;24821;51.988;6.020;2023-03-21T16:30:25;10.25;;;9.73;;
39066;SDS011;24821;51.988;6.020;2023-03-21T16:32:51;13.35;;;12.30;;
39066;SDS011;24821;51.988;6.020;2023-03-21T16:35:17;12.55;;;11.68;;
39066;SDS011;24821;51.988;6.020;2023-03-21T16:37:43;12.25;;;10.93;;
39066;SDS011;24821;51.988;6.020;2023-03-21T16:40:15;13.95;;;12.75;;
39066;SDS011;24821;51.988;6.020;2023-03-21T16:42:46;13.85;;;12.60;;
39066;SDS011;24821;51.988;6.020;2023-03-21T16:45:11;13.60;;;12.50;;
39066;SDS011;24821;51.988;6.020;2023-03-21T16:47:37;14.23;;;12.70;;
39066;SDS011;24821;51.988;6.020;2023-03-21T16:50:09;14.80;;;12.90;;
39066;SDS011;24821;51.988;6.020;2023-03-21T16:52:50;14.85;;;13.52;;
39066;SDS011;24821;51.988;6.020;2023-03-21T16:55:16;15.30;;;12.75;;